Time,TemperatureF,DewpointF,PressureIn,WindDirection,WindDirectionDegrees,WindSpeedMPH,WindSpeedGustMPH,Humidity,HourlyPrecipIn,Conditions,Clouds,dailyrainin,SolarRadiationWatts/m^2,SoftwareType,DateUTC
2013-10-03 00:02:00,55.6,52.7,29.88,NE,41,0.0,0.0,90,0.01,RA,OVC,0.00,0.0,WeatherDisplay:10.37,2013-10-03 05:02:00,
2013-10-03 00:07:00,55.6,52.7,29.87,NE,40,0.0,0.0,90,0.01,RA,OVC,0.00,0.0,WeatherDisplay:10.37,2013-10-03 05:07:00,
2013-10-03 00:12:00,55.6,52.7,29.87,NE,40,0.0,0.0,90,0.01,CLR,OVC,0.00,0.0,WeatherDisplay:10.37,2013-10-03 05:12:00,
2013-10-03 00:17:00,55.6,52.7,29.85,NE,55,1.2,0.0,90,0.01,CLR,OVC,0.00,0.0,WeatherDisplay:10.37,2013-10-03 05:17:00,
2013-10-03 00:23:00,55.6,52.7,29.85,NE,49,3.5,3.5,90,0.01,CLR,OVC,0.00,0.0,WeatherDisplay:10.37,2013-10-03 05:23:00,
2013-10-03 00:28:00,55.6,52.7,29.86,NE,51,3.5,3.5,90,0.01,CLR,OVC,0.00,0.0,WeatherDisplay:10.37,2013-10-03 05:28:00,
2013-10-03 00:33:00,55.6,52.7,29.86,ENE,59,1.2,0.0,90,0.01,CLR,OVC,0.00,0.0,WeatherDisplay:10.37,2013-10-03 05:33:00,
2013-10-03 00:38:00,55.6,52.7,29.86,NE,46,3.5,3.5,90,0.00,CLR,OVC,0.00,0.0,WeatherDisplay:10.37,2013-10-03 05:38:00,
2013-10-03 00:43:00,55.6,52.7,29.86,NE,46,0.0,0.0,90,0.00,CLR,OVC,0.00,0.0,WeatherDisplay:10.37,2013-10-03 05:43:00,
2013-10-03 00:48:00,55.6,52.7,29.86,NE,49,2.3,0.0,90,0.00,CLR,OVC,0.00,0.0,WeatherDisplay:10.37,2013-10-03 05:48:00,
2013-10-03 00:53:00,55.6,52.7,29.86,NE,48,0.0,0.0,90,0.00,CLR,OVC,0.00,0.0,WeatherDisplay:10.37,2013-10-03 05:53:00,
2013-10-03 00:58:00,55.6,52.7,29.86,NE,53,3.5,3.5,90,0.01,RA,OVC,0.01,0.0,WeatherDisplay:10.37,2013-10-03 05:58:00,
2013-10-03 01:03:00,55.6,52.7,29.86,East,96,0.0,0.0,90,0.01,RA,OVC,0.01,0.0,WeatherDisplay:10.37,2013-10-03 06:03:00,
2013-10-03 01:08:00,55.6,52.7,29.87,NE,43,3.0,3.0,90,0.01,CLR,OVC,0.01,0.0,WeatherDisplay:10.37,2013-10-03 06:08:00,
2013-10-03 01:13:00,55.6,52.7,29.87,ENE,63,0.0,0.0,90,0.01,CLR,OVC,0.01,0.0,WeatherDisplay:10.37,2013-10-03 06:13:00,
2013-10-03 01:18:00,55.6,52.7,29.87,NE,53,2.3,2.3,90,0.01,CLR,OVC,0.01,0.0,WeatherDisplay:10.37,2013-10-03 06:18:00,
2013-10-03 01:23:00,55.6,52.7,29.87,ENE,63,0.0,0.0,90,0.01,CLR,OVC,0.01,0.0,WeatherDisplay:10.37,2013-10-03 06:23:00,
2013-10-03 01:28:00,55.6,52.7,29.86,ENE,62,0.0,0.0,90,0.01,CLR,OVC,0.01,0.0,WeatherDisplay:10.37,2013-10-03 06:28:00,
2013-10-03 01:33:00,55.6,52.7,29.87,NE,44,0.0,0.0,90,0.01,CLR,OVC,0.01,0.0,WeatherDisplay:10.37,2013-10-03 06:33:00,
2013-10-03 01:38:00,55.6,52.7,29.87,NE,45,0.0,0.0,90,0.01,CLR,OVC,0.01,0.0,WeatherDisplay:10.37,2013-10-03 06:38:00,
2013-10-03 01:43:00,55.6,52.7,29.87,NE,48,1.2,0.0,90,0.01,CLR,OVC,0.01,0.0,WeatherDisplay:10.37,2013-10-03 06:43:00,
2013-10-03 01:48:00,55.6,52.7,29.87,NE,48,0.0,0.0,90,0.01,CLR,OVC,0.01,0.0,WeatherDisplay:10.37,2013-10-03 06:48:00,
2013-10-03 01:53:00,55.6,52.7,29.87,NE,52,2.3,2.3,90,0.01,CLR,OVC,0.01,0.0,WeatherDisplay:10.37,2013-10-03 06:53:00,
2013-10-03 01:58:00,55.6,52.7,29.88,ENE,61,0.0,0.0,90,0.01,RA,OVC,0.02,0.0,WeatherDisplay:10.37,2013-10-03 06:58:00,
2013-10-03 02:03:00,55.6,52.7,29.88,ENE,58,2.3,2.3,90,0.01,RA,OVC,0.02,0.0,WeatherDisplay:10.37,2013-10-03 07:03:00,
2013-10-03 02:08:00,55.6,52.7,29.88,ENE,58,0.0,0.0,90,0.01,,OVC,0.02,0.0,WeatherDisplay:10.37,2013-10-03 07:08:00,
2013-10-03 02:13:00,55.6,52.7,29.88,NE,55,3.5,3.5,90,0.01,CLR,OVC,0.02,0.0,WeatherDisplay:10.37,2013-10-03 07:13:00,
2013-10-03 02:18:00,55.6,52.7,29.88,NE,55,0.0,0.0,90,0.01,CLR,OVC,0.02,0.0,WeatherDisplay:10.37,2013-10-03 07:18:00,
2013-10-03 02:23:00,55.6,52.7,29.88,ENE,68,1.0,0.0,90,0.01,CLR,OVC,0.02,0.0,WeatherDisplay:10.37,2013-10-03 07:23:00,
2013-10-03 02:28:00,55.6,52.7,29.88,ENE,67,2.3,2.3,90,0.01,CLR,OVC,0.02,0.0,WeatherDisplay:10.37,2013-10-03 07:28:00,
2013-10-03 02:33:00,55.6,52.7,29.88,ENE,67,0.0,0.0,90,0.01,CLR,OVC,0.02,0.0,WeatherDisplay:10.37,2013-10-03 07:33:00,
2013-10-03 02:38:00,55.6,52.7,29.89,ENE,63,0.0,0.0,90,0.01,CLR,OVC,0.02,0.0,WeatherDisplay:10.37,2013-10-03 07:38:00,
2013-10-03 02:43:00,55.6,52.7,29.89,ENE,64,1.2,0.0,90,0.01,CLR,OVC,0.02,0.0,WeatherDisplay:10.37,2013-10-03 07:43:00,
2013-10-03 02:48:00,55.6,52.7,29.89,ENE,64,0.0,0.0,90,0.01,CLR,OVC,0.02,0.0,WeatherDisplay:10.37,2013-10-03 07:48:00,
2013-10-03 02:53:00,55.6,52.7,29.89,ENE,65,0.0,0.0,90,0.01,CLR,OVC,0.02,0.0,WeatherDisplay:10.37,2013-10-03 07:53:00,
2013-10-03 02:58:00,55.6,52.7,29.89,ENE,64,2.3,0.0,90,0.00,CLR,OVC,0.02,0.0,WeatherDisplay:10.37,2013-10-03 07:58:00,
2013-10-03 03:03:00,55.6,52.7,29.89,NE,52,0.0,0.0,90,0.00,CLR,OVC,0.02,0.0,WeatherDisplay:10.37,2013-10-03 08:03:00,
2013-10-03 03:08:00,55.6,52.7,29.89,NE,53,3.5,3.5,90,0.00,CLR,OVC,0.02,0.0,WeatherDisplay:10.37,2013-10-03 08:08:00,
2013-10-03 03:13:00,55.6,52.7,29.89,NNE,23,3.5,3.5,90,0.00,CLR,OVC,0.02,0.0,WeatherDisplay:10.37,2013-10-03 08:13:00,
2013-10-03 03:18:00,55.6,52.7,29.89,NE,51,0.0,0.0,90,0.01,RA,OVC,0.03,0.0,WeatherDisplay:10.37,2013-10-03 08:18:00,
2013-10-03 03:23:00,55.6,52.7,29.89,ENE,67,4.0,4.0,90,0.01,RA,OVC,0.03,0.0,WeatherDisplay:10.37,2013-10-03 08:23:00,
2013-10-03 03:28:00,55.6,52.7,29.89,NE,56,0.0,0.0,90,0.01,,OVC,0.03,0.0,WeatherDisplay:10.37,2013-10-03 08:28:00,
2013-10-03 03:33:00,55.6,52.7,29.88,NE,56,1.2,0.0,90,0.01,CLR,OVC,0.03,0.0,WeatherDisplay:10.37,2013-10-03 08:33:00,
2013-10-03 03:38:00,55.6,52.7,29.88,NE,51,3.5,3.5,90,0.01,CLR,OVC,0.03,0.0,WeatherDisplay:10.37,2013-10-03 08:38:00,
2013-10-03 03:43:00,55.6,52.7,29.88,NE,53,1.2,0.0,90,0.01,CLR,OVC,0.03,0.0,WeatherDisplay:10.37,2013-10-03 08:43:00,
2013-10-03 03:48:00,55.6,52.7,29.89,ENE,71,3.5,3.5,90,0.01,CLR,OVC,0.03,0.0,WeatherDisplay:10.37,2013-10-03 08:48:00,
2013-10-03 03:53:00,55.6,52.7,29.88,NE,46,3.5,3.5,90,0.01,CLR,OVC,0.03,0.0,WeatherDisplay:10.37,2013-10-03 08:53:00,
2013-10-03 03:58:00,55.6,52.7,29.89,NE,53,4.6,4.6,90,0.01,CLR,OVC,0.03,0.0,WeatherDisplay:10.37,2013-10-03 08:58:00,
2013-10-03 04:03:00,55.6,52.7,29.89,ENE,65,3.5,3.5,90,0.01,CLR,OVC,0.03,0.0,WeatherDisplay:10.37,2013-10-03 09:03:00,
2013-10-03 04:08:00,55.6,52.7,29.88,NE,53,0.0,0.0,90,0.01,CLR,OVC,0.03,0.0,WeatherDisplay:10.37,2013-10-03 09:08:00,
2013-10-03 04:13:00,55.6,52.7,29.88,NE,51,3.5,3.5,90,0.02,RA,OVC,0.04,0.0,WeatherDisplay:10.37,2013-10-03 09:13:00,
2013-10-03 04:18:00,55.6,52.7,29.88,ENE,57,0.0,0.0,90,0.01,RA,OVC,0.04,0.0,WeatherDisplay:10.37,2013-10-03 09:18:00,
2013-10-03 04:23:00,55.6,52.7,29.88,NE,37,6.0,6.0,90,0.01,,OVC,0.04,0.0,WeatherDisplay:10.37,2013-10-03 09:23:00,
2013-10-03 04:28:00,55.6,52.7,29.88,NE,49,0.0,0.0,90,0.01,CLR,OVC,0.04,0.0,WeatherDisplay:10.37,2013-10-03 09:28:00,
2013-10-03 04:33:00,55.6,52.7,29.87,NE,45,3.5,3.5,90,0.01,CLR,OVC,0.04,0.0,WeatherDisplay:10.37,2013-10-03 09:33:00,
2013-10-03 04:38:00,55.6,52.7,29.87,NE,46,0.0,0.0,90,0.01,CLR,OVC,0.04,0.0,WeatherDisplay:10.37,2013-10-03 09:38:00,
2013-10-03 04:43:00,55.6,52.7,29.87,NE,44,3.5,3.5,90,0.01,CLR,OVC,0.04,0.0,WeatherDisplay:10.37,2013-10-03 09:43:00,
2013-10-03 04:48:00,55.6,52.7,29.87,NE,44,3.5,3.5,90,0.01,CLR,OVC,0.04,0.0,WeatherDisplay:10.37,2013-10-03 09:48:00,
2013-10-03 04:53:00,55.6,52.7,29.87,NE,44,0.0,0.0,90,0.01,CLR,OVC,0.04,0.0,WeatherDisplay:10.37,2013-10-03 09:53:00,
2013-10-03 04:58:00,55.6,52.7,29.87,NE,36,0.0,0.0,90,0.01,CLR,OVC,0.04,0.0,WeatherDisplay:10.37,2013-10-03 09:58:00,
2013-10-03 05:03:00,55.6,52.7,29.88,ENE,74,1.2,0.0,90,0.01,CLR,OVC,0.04,0.0,WeatherDisplay:10.37,2013-10-03 10:03:00,
2013-10-03 05:08:00,55.6,52.7,29.88,NE,43,3.5,3.5,90,0.01,CLR,OVC,0.04,0.0,WeatherDisplay:10.37,2013-10-03 10:08:00,
2013-10-03 05:13:00,55.6,52.7,29.88,ENE,59,0.0,0.0,90,0.00,CLR,OVC,0.04,0.0,WeatherDisplay:10.37,2013-10-03 10:13:00,
2013-10-03 05:18:00,55.6,52.7,29.88,ENE,59,0.0,0.0,90,0.00,CLR,OVC,0.04,0.0,WeatherDisplay:10.37,2013-10-03 10:18:00,
2013-10-03 05:23:00,55.6,52.7,29.88,NE,54,5.0,5.0,90,0.00,CLR,OVC,0.04,0.0,WeatherDisplay:10.37,2013-10-03 10:23:00,
2013-10-03 05:28:00,55.6,52.7,29.88,NE,52,0.0,0.0,90,0.00,CLR,OVC,0.04,0.0,WeatherDisplay:10.37,2013-10-03 10:28:00,
2013-10-03 05:33:00,55.6,52.7,29.87,ENE,69,3.5,3.5,90,0.00,CLR,OVC,0.04,0.0,WeatherDisplay:10.37,2013-10-03 10:33:00,
2013-10-03 05:38:00,55.6,52.7,29.88,NE,55,1.2,1.2,90,0.00,CLR,OVC,0.04,0.0,WeatherDisplay:10.37,2013-10-03 10:38:00,
2013-10-03 05:43:00,55.6,52.7,29.88,ENE,57,0.0,0.0,90,0.00,CLR,OVC,0.04,0.0,WeatherDisplay:10.37,2013-10-03 10:43:00,
2013-10-03 05:48:00,55.6,52.7,29.88,NE,56,0.0,0.0,90,0.00,CLR,OVC,0.04,0.0,WeatherDisplay:10.37,2013-10-03 10:48:00,
2013-10-03 05:53:00,55.6,52.7,29.88,NE,52,3.5,3.5,90,0.00,CLR,OVC,0.04,0.0,WeatherDisplay:10.37,2013-10-03 10:53:00,
2013-10-03 05:58:00,55.6,52.7,29.88,NE,46,0.0,0.0,90,0.00,CLR,OVC,0.04,0.0,WeatherDisplay:10.37,2013-10-03 10:58:00,
2013-10-03 06:03:00,55.6,52.7,29.88,NE,49,3.5,3.5,90,0.01,RA,OVC,0.05,0.0,WeatherDisplay:10.37,2013-10-03 11:03:00,
2013-10-03 06:08:00,55.6,52.7,29.87,ENE,62,0.0,0.0,90,0.01,RA,OVC,0.05,0.0,WeatherDisplay:10.37,2013-10-03 11:08:00,
2013-10-03 06:13:00,55.6,52.7,29.87,NE,42,2.3,2.3,90,0.01,CLR,OVC,0.05,0.0,WeatherDisplay:10.37,2013-10-03 11:13:00,
2013-10-03 06:18:00,55.6,52.7,29.87,NE,49,2.3,2.3,90,0.01,CLR,OVC,0.05,0.0,WeatherDisplay:10.37,2013-10-03 11:18:00,
2013-10-03 06:23:00,55.6,52.7,29.87,ENE,59,3.0,3.0,90,0.01,CLR,OVC,0.05,0.0,WeatherDisplay:10.37,2013-10-03 11:23:00,
2013-10-03 06:28:00,55.6,52.7,29.87,NE,46,4.6,4.6,90,0.01,CLR,OVC,0.05,0.0,WeatherDisplay:10.37,2013-10-03 11:28:00,
2013-10-03 06:33:00,55.6,52.7,29.88,NE,39,1.2,0.0,90,0.01,CLR,OVC,0.05,0.0,WeatherDisplay:10.37,2013-10-03 11:33:00,
2013-10-03 06:38:00,55.6,52.7,29.88,ENE,66,6.9,6.9,90,0.01,CLR,OVC,0.05,0.0,WeatherDisplay:10.37,2013-10-03 11:38:00,
2013-10-03 06:43:00,55.6,52.7,29.88,ENE,57,4.6,4.6,90,0.01,CLR,OVC,0.05,0.0,WeatherDisplay:10.37,2013-10-03 11:43:00,
2013-10-03 06:48:00,55.6,52.7,29.88,ENE,57,0.0,0.0,90,0.01,CLR,OVC,0.05,0.0,WeatherDisplay:10.37,2013-10-03 11:48:00,
2013-10-03 06:53:00,55.6,52.7,29.88,NNE,33,3.5,3.5,90,0.01,CLR,OVC,0.05,0.0,WeatherDisplay:10.37,2013-10-03 11:53:00,
2013-10-03 06:58:00,55.6,52.7,29.88,NE,42,3.5,0.0,90,0.01,CLR,OVC,0.05,0.0,WeatherDisplay:10.37,2013-10-03 11:58:00,
2013-10-03 07:03:00,55.6,52.7,29.88,NE,44,0.0,0.0,90,0.00,CLR,OVC,0.05,0.0,WeatherDisplay:10.37,2013-10-03 12:03:00,
2013-10-03 07:08:00,55.6,52.7,29.88,NE,36,0.0,0.0,90,0.00,CLR,OVC,0.05,0.0,WeatherDisplay:10.37,2013-10-03 12:08:00,
2013-10-03 07:13:00,55.6,52.7,29.88,NE,37,0.0,0.0,90,0.00,CLR,OVC,0.05,0.0,WeatherDisplay:10.37,2013-10-03 12:13:00,
2013-10-03 07:18:00,55.6,52.7,29.88,NE,49,2.3,2.3,90,0.00,CLR,OVC,0.05,0.0,WeatherDisplay:10.37,2013-10-03 12:18:00,
2013-10-03 07:23:00,55.6,52.7,29.88,NE,46,0.0,0.0,90,0.00,CLR,OVC,0.05,0.0,WeatherDisplay:10.37,2013-10-03 12:23:00,
2013-10-03 07:28:00,55.6,52.7,29.88,NE,45,2.0,0.0,90,0.01,RA,OVC,0.06,0.0,WeatherDisplay:10.37,2013-10-03 12:28:00,
2013-10-03 07:33:00,55.6,52.7,29.88,NE,44,0.0,0.0,90,0.01,RA,OVC,0.06,0.0,WeatherDisplay:10.37,2013-10-03 12:33:00,
2013-10-03 07:38:00,55.6,52.7,29.89,NE,44,0.0,0.0,90,0.01,,OVC,0.06,0.0,WeatherDisplay:10.37,2013-10-03 12:38:00,
2013-10-03 07:43:00,55.6,52.7,29.88,NE,43,0.0,0.0,90,0.01,CLR,OVC,0.06,0.0,WeatherDisplay:10.37,2013-10-03 12:43:00,
2013-10-03 07:48:00,55.6,52.7,29.88,NE,51,0.0,0.0,90,0.01,CLR,OVC,0.06,0.0,WeatherDisplay:10.37,2013-10-03 12:48:00,
2013-10-03 07:53:00,55.6,52.7,29.88,NE,51,0.0,0.0,90,0.01,CLR,OVC,0.06,0.0,WeatherDisplay:10.37,2013-10-03 12:53:00,
2013-10-03 07:58:00,55.6,52.7,29.88,NE,51,0.0,0.0,90,0.01,CLR,OVC,0.06,0.0,WeatherDisplay:10.37,2013-10-03 12:58:00,
2013-10-03 08:03:00,55.6,52.7,29.88,NE,52,4.6,4.6,90,0.01,CLR,OVC,0.06,0.0,WeatherDisplay:10.37,2013-10-03 13:03:00,
2013-10-03 08:08:00,55.6,52.7,29.88,NE,53,0.0,0.0,90,0.01,CLR,OVC,0.06,0.0,WeatherDisplay:10.37,2013-10-03 13:08:00,
2013-10-03 08:13:00,55.6,52.7,29.87,NE,56,2.0,2.0,90,0.01,CLR,OVC,0.06,0.0,WeatherDisplay:10.37,2013-10-03 13:13:00,
2013-10-03 08:18:00,55.6,52.7,29.87,NE,51,0.0,0.0,90,0.01,CLR,OVC,0.06,0.0,WeatherDisplay:10.37,2013-10-03 13:18:00,
2013-10-03 08:23:00,55.6,52.7,29.87,ENE,60,1.0,0.0,90,0.01,CLR,OVC,0.06,0.0,WeatherDisplay:10.37,2013-10-03 13:23:00,
2013-10-03 08:28:00,55.6,52.7,29.87,NE,53,3.5,3.5,90,0.00,CLR,OVC,0.06,0.0,WeatherDisplay:10.37,2013-10-03 13:28:00,
2013-10-03 08:33:00,55.6,52.7,29.87,ENE,63,0.0,0.0,90,0.00,CLR,OVC,0.06,0.0,WeatherDisplay:10.37,2013-10-03 13:33:00,
2013-10-03 08:38:00,55.6,52.7,29.87,ENE,58,0.0,0.0,90,0.00,CLR,OVC,0.06,0.0,WeatherDisplay:10.37,2013-10-03 13:38:00,
2013-10-03 08:43:00,55.6,52.7,29.87,NE,55,3.0,3.0,90,0.00,CLR,OVC,0.06,0.0,WeatherDisplay:10.37,2013-10-03 13:43:00,
2013-10-03 08:48:00,55.6,52.7,29.87,ENE,59,4.0,4.0,90,0.00,CLR,OVC,0.06,0.0,WeatherDisplay:10.37,2013-10-03 13:48:00,
2013-10-03 08:53:00,55.6,52.7,29.87,NE,43,3.5,3.5,90,0.00,CLR,OVC,0.06,0.0,WeatherDisplay:10.37,2013-10-03 13:53:00,
2013-10-03 08:58:00,55.6,52.7,29.87,NE,51,0.0,0.0,90,0.00,CLR,OVC,0.06,0.0,WeatherDisplay:10.37,2013-10-03 13:58:00,
2013-10-03 09:03:00,55.6,52.7,29.88,NE,54,3.5,3.5,90,0.00,OVC,,0.06,0.0,WeatherDisplay:10.37,2013-10-03 14:03:00,
2013-10-03 09:08:00,55.6,52.7,29.88,NE,53,0.0,0.0,90,0.00,OVC,,0.06,0.0,WeatherDisplay:10.37,2013-10-03 14:08:00,
2013-10-03 09:13:00,55.6,52.7,29.88,NE,52,2.3,0.0,90,0.00,OVC,,0.06,0.0,WeatherDisplay:10.37,2013-10-03 14:13:00,
2013-10-03 09:18:00,55.6,52.7,29.88,NE,53,3.5,3.5,90,0.00,OVC,,0.06,0.0,WeatherDisplay:10.37,2013-10-03 14:18:00,
2013-10-03 09:23:00,55.6,52.7,29.88,NNE,30,0.0,0.0,90,0.00,OVC,,0.06,0.0,WeatherDisplay:10.37,2013-10-03 14:23:00,
2013-10-03 09:28:00,55.6,52.7,29.88,ENE,62,0.0,0.0,90,0.00,OVC,,0.06,0.0,WeatherDisplay:10.37,2013-10-03 14:28:00,
2013-10-03 09:33:00,55.6,52.7,29.88,ENE,62,1.0,1.0,90,0.00,OVC,,0.06,0.0,WeatherDisplay:10.37,2013-10-03 14:33:00,
2013-10-03 09:38:00,55.6,52.7,29.88,NE,50,0.0,0.0,90,0.00,OVC,,0.06,0.0,WeatherDisplay:10.37,2013-10-03 14:38:00,
2013-10-03 09:43:00,55.6,52.7,29.88,NE,50,0.0,0.0,90,0.00,OVC,,0.06,0.0,WeatherDisplay:10.37,2013-10-03 14:43:00,
2013-10-03 09:48:00,55.6,52.7,29.88,NE,49,1.2,0.0,90,0.00,OVC,,0.06,0.0,WeatherDisplay:10.37,2013-10-03 14:48:00,
2013-10-03 09:53:00,55.6,52.7,29.87,NE,48,3.5,3.5,90,0.00,OVC,,0.06,0.0,WeatherDisplay:10.37,2013-10-03 14:53:00,
2013-10-03 09:58:00,55.6,52.7,29.87,NE,46,0.0,0.0,90,0.00,OVC,,0.06,0.0,WeatherDisplay:10.37,2013-10-03 14:58:00,
2013-10-03 10:03:00,55.6,52.7,29.88,NE,51,3.5,3.5,90,0.00,OVC,,0.06,0.0,WeatherDisplay:10.37,2013-10-03 15:03:00,
2013-10-03 10:08:00,55.6,52.7,29.88,NNE,26,0.0,0.0,90,0.00,OVC,,0.06,0.0,WeatherDisplay:10.37,2013-10-03 15:08:00,
2013-10-03 10:13:00,55.6,52.7,29.88,NNE,26,0.0,0.0,90,0.00,OVC,,0.06,0.0,WeatherDisplay:10.37,2013-10-03 15:13:00,
2013-10-03 10:18:00,55.6,52.7,29.88,NE,55,2.3,2.3,90,0.00,OVC,,0.06,0.0,WeatherDisplay:10.37,2013-10-03 15:18:00,
2013-10-03 10:23:00,55.6,52.7,29.88,NE,54,3.5,3.5,90,0.01,RA,OVC,0.07,0.0,WeatherDisplay:10.37,2013-10-03 15:23:00,
2013-10-03 10:28:00,55.6,52.7,29.88,NE,54,0.0,0.0,90,0.01,RA,OVC,0.07,0.0,WeatherDisplay:10.37,2013-10-03 15:28:00,
2013-10-03 10:33:00,55.6,52.7,29.88,NE,49,3.5,3.5,90,0.01,OVC,,0.07,0.0,WeatherDisplay:10.37,2013-10-03 15:33:00,
2013-10-03 10:38:00,55.6,52.7,29.88,NE,48,4.0,4.0,90,0.01,OVC,,0.07,0.0,WeatherDisplay:10.37,2013-10-03 15:38:00,
2013-10-03 10:43:00,55.6,52.7,29.87,NE,54,5.8,5.8,90,0.01,OVC,,0.07,0.0,WeatherDisplay:10.37,2013-10-03 15:43:00,
2013-10-03 10:48:00,55.6,52.7,29.87,NE,46,6.9,6.9,90,0.01,OVC,,0.07,0.0,WeatherDisplay:10.37,2013-10-03 15:48:00,
2013-10-03 10:53:00,55.6,52.7,29.86,NE,39,3.5,3.5,90,0.01,OVC,,0.07,0.0,WeatherDisplay:10.37,2013-10-03 15:53:00,
2013-10-03 10:58:00,55.6,52.7,29.86,NE,44,5.8,5.8,90,0.01,OVC,,0.07,0.0,WeatherDisplay:10.37,2013-10-03 15:58:00,
2013-10-03 11:03:00,55.6,52.7,29.86,NE,40,2.0,2.0,90,0.01,OVC,,0.07,0.0,WeatherDisplay:10.37,2013-10-03 16:03:00,
2013-10-03 11:08:00,55.6,52.7,29.86,ENE,76,0.0,0.0,90,0.01,OVC,,0.07,0.0,WeatherDisplay:10.37,2013-10-03 16:08:00,
2013-10-03 11:13:00,55.6,52.7,29.86,ENE,75,0.0,0.0,90,0.01,OVC,,0.07,0.0,WeatherDisplay:10.37,2013-10-03 16:13:00,
2013-10-03 11:18:00,55.6,52.7,29.85,NE,43,3.5,3.5,90,0.01,OVC,,0.07,0.0,WeatherDisplay:10.37,2013-10-03 16:18:00,
2013-10-03 11:23:00,55.6,52.7,29.85,NE,37,3.5,3.5,90,0.00,OVC,,0.07,0.0,WeatherDisplay:10.37,2013-10-03 16:23:00,
2013-10-03 11:28:00,55.6,52.7,29.85,ENE,62,4.6,4.6,90,0.00,OVC,,0.07,0.0,WeatherDisplay:10.37,2013-10-03 16:28:00,
2013-10-03 11:33:00,55.6,52.7,29.85,ENE,63,6.9,6.9,90,0.00,OVC,,0.07,0.0,WeatherDisplay:10.37,2013-10-03 16:33:00,
2013-10-03 11:38:00,55.6,52.7,29.85,ENE,61,9.2,9.2,90,0.00,OVC,,0.07,0.0,WeatherDisplay:10.37,2013-10-03 16:38:00,
2013-10-03 11:43:00,55.6,52.7,29.85,NE,54,0.0,0.0,90,0.00,OVC,,0.07,0.0,WeatherDisplay:10.37,2013-10-03 16:43:00,
2013-10-03 11:48:00,55.6,52.7,29.85,ENE,67,8.1,8.1,90,0.00,OVC,,0.07,0.0,WeatherDisplay:10.37,2013-10-03 16:48:00,
2013-10-03 11:53:00,55.6,52.7,29.85,NE,49,2.0,2.0,90,0.00,OVC,,0.07,0.0,WeatherDisplay:10.37,2013-10-03 16:53:00,
2013-10-03 11:58:00,55.6,52.7,29.86,NE,42,0.0,0.0,90,0.00,OVC,,0.07,0.0,WeatherDisplay:10.37,2013-10-03 16:58:00,
2013-10-03 12:03:00,55.6,52.7,29.86,NE,34,0.0,0.0,90,0.00,OVC,,0.07,0.0,WeatherDisplay:10.37,2013-10-03 17:03:00,
2013-10-03 12:08:00,55.6,52.7,29.86,NE,44,0.0,0.0,90,0.00,OVC,,0.07,0.0,WeatherDisplay:10.37,2013-10-03 17:08:00,
2013-10-03 12:13:00,55.6,52.7,29.86,NE,41,1.0,1.0,90,0.00,OVC,,0.07,0.0,WeatherDisplay:10.37,2013-10-03 17:13:00,
2013-10-03 12:18:00,55.6,52.7,29.87,NE,42,0.0,0.0,90,0.00,OVC,,0.07,0.0,WeatherDisplay:10.37,2013-10-03 17:18:00,
2013-10-03 12:23:00,55.6,52.7,29.88,NE,41,0.0,0.0,90,0.00,OVC,,0.07,0.0,WeatherDisplay:10.37,2013-10-03 17:23:00,
2013-10-03 12:28:00,55.6,52.7,29.88,NE,41,0.0,0.0,90,0.00,OVC,,0.07,0.0,WeatherDisplay:10.37,2013-10-03 17:28:00,
2013-10-03 12:33:00,55.6,52.7,29.87,NE,41,0.0,0.0,90,0.00,OVC,,0.07,0.0,WeatherDisplay:10.37,2013-10-03 17:33:00,
2013-10-03 12:38:00,55.6,52.7,29.87,NE,41,0.0,0.0,90,0.00,OVC,,0.07,0.0,WeatherDisplay:10.37,2013-10-03 17:38:00,
2013-10-03 12:43:00,55.6,52.7,29.87,NE,49,0.0,0.0,90,0.00,OVC,,0.07,0.0,WeatherDisplay:10.37,2013-10-03 17:43:00,
2013-10-03 12:48:00,55.6,52.7,29.88,NE,49,0.0,0.0,90,0.00,OVC,,0.07,0.0,WeatherDisplay:10.37,2013-10-03 17:48:00,
2013-10-03 12:53:00,55.6,52.7,29.86,NE,48,3.5,3.5,90,0.00,OVC,,0.07,0.0,WeatherDisplay:10.37,2013-10-03 17:53:00,
2013-10-03 12:58:00,55.6,52.7,29.86,ENE,57,1.2,1.2,90,0.00,OVC,,0.07,0.0,WeatherDisplay:10.37,2013-10-03 17:58:00,
2013-10-03 13:03:00,55.6,52.7,29.86,NE,53,1.0,0.0,90,0.00,OVC,,0.07,0.0,WeatherDisplay:10.37,2013-10-03 18:03:00,
2013-10-03 13:08:00,55.6,52.7,29.86,NE,55,2.3,2.3,90,0.00,OVC,,0.07,0.0,WeatherDisplay:10.37,2013-10-03 18:08:00,
2013-10-03 13:13:00,55.6,52.7,29.85,NE,55,3.5,3.5,90,0.00,OVC,,0.07,0.0,WeatherDisplay:10.37,2013-10-03 18:13:00,
2013-10-03 13:18:00,55.6,52.7,29.85,NE,51,3.5,3.5,90,0.00,OVC,,0.07,0.0,WeatherDisplay:10.37,2013-10-03 18:18:00,
2013-10-03 13:23:00,55.6,52.7,29.85,NNE,17,1.2,1.2,90,0.00,OVC,,0.07,0.0,WeatherDisplay:10.37,2013-10-03 18:23:00,
2013-10-03 13:28:00,55.6,52.7,29.85,NE,46,2.3,2.3,90,0.00,OVC,,0.07,0.0,WeatherDisplay:10.37,2013-10-03 18:28:00,
2013-10-03 13:33:00,55.6,52.7,29.85,NE,46,2.3,2.3,90,0.00,OVC,,0.07,0.0,WeatherDisplay:10.37,2013-10-03 18:33:00,
2013-10-03 13:38:00,55.6,52.7,29.86,NE,41,0.0,0.0,90,0.00,OVC,,0.07,0.0,WeatherDisplay:10.37,2013-10-03 18:38:00,
2013-10-03 13:43:00,55.6,52.7,29.86,ENE,57,3.5,3.5,90,0.01,RA,OVC,0.08,0.0,WeatherDisplay:10.37,2013-10-03 18:43:00,
2013-10-03 13:48:00,55.6,52.7,29.86,ENE,60,4.6,4.6,90,0.01,RA,OVC,0.08,0.0,WeatherDisplay:10.37,2013-10-03 18:48:00,
2013-10-03 13:53:00,55.6,52.7,29.86,ENE,59,3.5,3.5,90,0.01,OVC,,0.08,0.0,WeatherDisplay:10.37,2013-10-03 18:53:00,
2013-10-03 13:58:00,55.6,52.7,29.86,NE,47,3.5,3.5,90,0.01,OVC,,0.08,0.0,WeatherDisplay:10.37,2013-10-03 18:58:00,
2013-10-03 14:03:00,55.6,52.7,29.86,ENE,67,0.0,0.0,90,0.01,OVC,,0.08,0.0,WeatherDisplay:10.37,2013-10-03 19:03:00,
2013-10-03 14:08:00,55.6,52.7,29.85,ENE,59,3.5,3.5,90,0.01,OVC,,0.08,0.0,WeatherDisplay:10.37,2013-10-03 19:08:00,
2013-10-03 14:13:00,55.6,52.7,29.86,East,81,4.6,4.6,90,0.01,OVC,,0.08,0.0,WeatherDisplay:10.37,2013-10-03 19:13:00,
2013-10-03 14:18:00,55.6,52.7,29.85,ENE,76,3.5,3.5,90,0.01,OVC,,0.08,0.0,WeatherDisplay:10.37,2013-10-03 19:18:00,
2013-10-03 14:23:00,55.6,52.7,29.86,NE,41,0.0,0.0,90,0.01,OVC,,0.08,0.0,WeatherDisplay:10.37,2013-10-03 19:23:00,
2013-10-03 14:28:00,55.6,52.7,29.86,NE,34,4.6,4.6,90,0.01,OVC,,0.08,0.0,WeatherDisplay:10.37,2013-10-03 19:28:00,
2013-10-03 14:33:00,55.6,52.7,29.86,NNE,26,0.0,0.0,90,0.01,OVC,,0.08,0.0,WeatherDisplay:10.37,2013-10-03 19:33:00,
2013-10-03 14:38:00,55.6,52.7,29.86,ENE,69,4.6,4.6,90,0.01,OVC,,0.08,0.0,WeatherDisplay:10.37,2013-10-03 19:38:00,
2013-10-03 14:43:00,55.6,52.7,29.86,ENE,58,2.3,2.3,90,0.00,OVC,,0.08,0.0,WeatherDisplay:10.37,2013-10-03 19:43:00,
2013-10-03 14:48:00,55.6,52.7,29.86,NE,34,5.8,5.8,90,0.00,OVC,,0.08,0.0,WeatherDisplay:10.37,2013-10-03 19:48:00,
2013-10-03 14:53:00,55.6,52.7,29.86,ENE,74,4.6,4.6,90,0.00,OVC,,0.08,0.0,WeatherDisplay:10.37,2013-10-03 19:53:00,
2013-10-03 14:58:00,55.6,52.7,29.86,NE,54,3.5,3.5,90,0.00,OVC,,0.08,0.0,WeatherDisplay:10.37,2013-10-03 19:58:00,
2013-10-03 15:03:00,55.6,52.7,29.86,NE,47,3.5,3.5,90,0.00,OVC,,0.08,0.0,WeatherDisplay:10.37,2013-10-03 20:03:00,
2013-10-03 15:08:00,55.6,52.7,29.86,NE,50,5.8,5.8,90,0.00,OVC,,0.08,0.0,WeatherDisplay:10.37,2013-10-03 20:08:00,
2013-10-03 15:13:00,55.6,52.7,29.86,ENE,69,4.6,4.6,90,0.00,OVC,,0.08,0.0,WeatherDisplay:10.37,2013-10-03 20:13:00,
2013-10-03 15:18:00,55.6,52.7,29.86,NE,34,5.8,5.8,90,0.00,OVC,,0.08,0.0,WeatherDisplay:10.37,2013-10-03 20:18:00,
2013-10-03 15:23:00,55.6,52.7,29.86,NE,44,0.0,0.0,90,0.00,OVC,,0.08,0.0,WeatherDisplay:10.37,2013-10-03 20:23:00,
2013-10-03 15:28:00,55.6,52.7,29.86,ENE,59,4.6,4.6,90,0.00,OVC,,0.08,0.0,WeatherDisplay:10.37,2013-10-03 20:28:00,
2013-10-03 15:33:00,55.6,52.7,29.86,NE,44,2.3,0.0,90,0.00,OVC,,0.08,0.0,WeatherDisplay:10.37,2013-10-03 20:33:00,
2013-10-03 15:38:00,55.6,52.7,29.87,ENE,58,0.0,0.0,90,0.00,OVC,,0.08,0.0,WeatherDisplay:10.37,2013-10-03 20:38:00,
2013-10-03 15:43:00,55.6,52.7,29.86,NE,53,3.5,3.5,90,0.00,OVC,,0.08,0.0,WeatherDisplay:10.37,2013-10-03 20:43:00,
2013-10-03 15:48:00,55.6,52.7,29.86,East,81,5.0,5.0,90,0.00,OVC,,0.08,0.0,WeatherDisplay:10.37,2013-10-03 20:48:00,
2013-10-03 15:53:00,55.6,52.7,29.86,ENE,61,3.5,3.5,90,0.00,OVC,,0.08,0.0,WeatherDisplay:10.37,2013-10-03 20:53:00,
2013-10-03 15:58:00,55.6,52.7,29.86,ENE,61,3.5,3.5,90,0.00,OVC,,0.08,0.0,WeatherDisplay:10.37,2013-10-03 20:58:00,
2013-10-03 16:03:00,55.6,52.7,29.86,ENE,65,8.1,8.1,90,0.00,OVC,,0.08,0.0,WeatherDisplay:10.37,2013-10-03 21:03:00,
2013-10-03 16:08:00,55.6,52.7,29.86,NNE,32,8.1,8.1,90,0.00,OVC,,0.08,0.0,WeatherDisplay:10.37,2013-10-03 21:08:00,
2013-10-03 16:13:00,55.6,52.7,29.85,NE,36,6.9,6.9,90,0.00,OVC,,0.08,0.0,WeatherDisplay:10.37,2013-10-03 21:13:00,
2013-10-03 16:18:00,55.6,52.7,29.85,NE,36,4.6,4.6,90,0.00,OVC,,0.08,0.0,WeatherDisplay:10.37,2013-10-03 21:18:00,
2013-10-03 16:23:00,55.6,52.7,29.85,NNE,31,9.2,9.2,90,0.00,OVC,,0.08,0.0,WeatherDisplay:10.37,2013-10-03 21:23:00,
2013-10-03 16:28:00,55.6,52.7,29.86,NNE,30,9.2,9.2,90,0.00,OVC,,0.08,0.0,WeatherDisplay:10.37,2013-10-03 21:28:00,
2013-10-03 16:33:00,55.6,52.7,29.86,NE,39,6.9,6.9,90,0.00,OVC,,0.08,0.0,WeatherDisplay:10.37,2013-10-03 21:33:00,
2013-10-03 16:38:00,55.6,52.7,29.86,ENE,78,11.0,11.0,90,0.00,OVC,,0.08,0.0,WeatherDisplay:10.37,2013-10-03 21:38:00,
2013-10-03 16:43:00,55.6,52.7,29.86,NE,53,11.5,11.5,90,0.00,OVC,,0.08,0.0,WeatherDisplay:10.37,2013-10-03 21:43:00,
2013-10-03 16:48:00,55.6,52.7,29.87,ENE,65,4.6,4.6,90,0.00,OVC,,0.08,0.0,WeatherDisplay:10.37,2013-10-03 21:48:00,
2013-10-03 16:53:00,55.6,52.7,29.87,NE,55,4.0,4.0,90,0.00,OVC,,0.08,0.0,WeatherDisplay:10.37,2013-10-03 21:53:00,
2013-10-03 16:58:00,55.6,52.7,29.87,NE,43,3.5,3.5,90,0.00,OVC,,0.08,0.0,WeatherDisplay:10.37,2013-10-03 21:58:00,
2013-10-03 17:03:00,55.6,52.7,29.87,ENE,67,4.0,4.0,90,0.00,CLR,OVC,0.08,0.0,WeatherDisplay:10.37,2013-10-03 22:03:00,
2013-10-03 17:08:00,55.6,52.7,29.88,NE,36,4.6,4.6,90,0.00,CLR,OVC,0.08,0.0,WeatherDisplay:10.37,2013-10-03 22:08:00,
2013-10-03 17:13:00,55.6,52.7,29.87,NE,54,4.6,4.6,90,0.00,CLR,OVC,0.08,0.0,WeatherDisplay:10.37,2013-10-03 22:13:00,
2013-10-03 17:18:00,55.6,52.7,29.87,NNE,12,6.9,6.9,90,0.00,CLR,OVC,0.08,0.0,WeatherDisplay:10.37,2013-10-03 22:18:00,
2013-10-03 17:23:00,55.6,52.7,29.89,NE,45,11.5,11.5,90,0.00,CLR,OVC,0.08,0.0,WeatherDisplay:10.37,2013-10-03 22:23:00,
2013-10-03 17:28:00,55.6,52.7,29.88,NE,54,8.1,8.1,90,0.00,CLR,OVC,0.08,0.0,WeatherDisplay:10.37,2013-10-03 22:28:00,
2013-10-03 17:33:00,55.6,52.7,29.88,NE,48,4.6,4.6,90,0.00,CLR,OVC,0.08,0.0,WeatherDisplay:10.37,2013-10-03 22:33:00,
2013-10-03 17:38:00,55.6,52.7,29.89,NE,53,4.0,4.0,90,0.00,CLR,OVC,0.08,0.0,WeatherDisplay:10.37,2013-10-03 22:38:00,
2013-10-03 17:43:00,55.6,52.7,29.89,NE,53,4.6,4.6,90,0.00,CLR,OVC,0.08,0.0,WeatherDisplay:10.37,2013-10-03 22:43:00,
2013-10-03 17:48:00,55.6,52.7,29.88,ENE,71,4.0,4.0,90,0.00,CLR,OVC,0.08,0.0,WeatherDisplay:10.37,2013-10-03 22:48:00,
2013-10-03 17:53:00,55.6,52.7,29.88,NE,34,2.3,2.3,90,0.00,CLR,OVC,0.08,0.0,WeatherDisplay:10.37,2013-10-03 22:53:00,
2013-10-03 17:58:00,55.6,52.7,29.89,NE,53,5.8,5.8,90,0.00,CLR,OVC,0.08,0.0,WeatherDisplay:10.37,2013-10-03 22:58:00,
2013-10-03 18:03:00,55.6,52.7,29.89,NE,51,3.5,3.5,90,0.00,CLR,OVC,0.08,0.0,WeatherDisplay:10.37,2013-10-03 23:03:00,
2013-10-03 18:08:00,55.6,52.7,29.88,ENE,73,4.6,4.6,90,0.00,CLR,OVC,0.08,0.0,WeatherDisplay:10.37,2013-10-03 23:08:00,
2013-10-03 18:13:00,55.6,52.7,29.89,NE,46,8.1,8.1,90,0.00,CLR,OVC,0.08,0.0,WeatherDisplay:10.37,2013-10-03 23:13:00,
2013-10-03 18:18:00,55.6,52.7,29.88,NE,52,5.8,5.8,90,0.00,CLR,OVC,0.08,0.0,WeatherDisplay:10.37,2013-10-03 23:18:00,
2013-10-03 18:23:00,55.6,52.7,29.88,NE,36,8.1,8.1,90,0.00,CLR,OVC,0.08,0.0,WeatherDisplay:10.37,2013-10-03 23:23:00,
2013-10-03 18:28:00,55.6,52.7,29.88,NE,56,3.5,3.5,90,0.00,CLR,OVC,0.08,0.0,WeatherDisplay:10.37,2013-10-03 23:28:00,
2013-10-03 18:33:00,55.6,52.7,29.88,NNE,32,9.2,9.2,90,0.00,CLR,OVC,0.08,0.0,WeatherDisplay:10.37,2013-10-03 23:33:00,
2013-10-03 18:38:00,55.6,52.7,29.89,NE,46,4.6,4.6,90,0.00,CLR,OVC,0.08,0.0,WeatherDisplay:10.37,2013-10-03 23:38:00,
2013-10-03 18:43:00,55.6,47.8,29.89,ENE,61,4.6,4.6,75,0.00,CLR,OVC,0.08,0.0,WeatherDisplay:10.37,2013-10-03 23:43:00,
2013-10-03 18:48:00,55.6,47.8,29.88,NE,45,3.5,3.5,75,0.00,CLR,OVC,0.08,0.0,WeatherDisplay:10.37,2013-10-03 23:48:00,
2013-10-03 18:53:00,55.6,47.8,29.89,ENE,65,8.1,8.1,75,0.00,CLR,OVC,0.08,0.0,WeatherDisplay:10.37,2013-10-03 23:53:00,
2013-10-03 18:58:00,56.0,52.8,29.88,ENE,57,5.8,5.8,89,0.00,CLR,OVC,0.08,0.0,WeatherDisplay:10.37,2013-10-03 23:58:00,
2013-10-03 19:03:00,56.1,52.9,29.89,NE,36,9.2,9.2,89,0.00,CLR,OVC,0.08,0.0,WeatherDisplay:10.37,2013-10-04 00:03:00,
2013-10-03 19:08:00,56.1,52.9,29.88,NE,35,4.6,4.6,89,0.00,CLR,OVC,0.08,0.0,WeatherDisplay:10.37,2013-10-04 00:08:00,
2013-10-03 19:13:00,56.1,52.9,29.89,NE,45,3.5,3.5,89,0.00,CLR,OVC,0.08,0.0,WeatherDisplay:10.37,2013-10-04 00:13:00,
2013-10-03 19:18:00,56.1,52.9,29.89,NE,46,3.5,3.5,89,0.00,CLR,OVC,0.08,0.0,WeatherDisplay:10.37,2013-10-04 00:18:00,
2013-10-03 19:23:00,56.1,52.9,29.89,NE,36,3.5,3.5,89,0.00,CLR,OVC,0.08,0.0,WeatherDisplay:10.37,2013-10-04 00:23:00,
2013-10-03 19:28:00,56.1,52.9,29.89,NE,51,3.5,3.5,89,0.00,CLR,OVC,0.08,0.0,WeatherDisplay:10.37,2013-10-04 00:28:00,
2013-10-03 19:33:00,56.0,52.8,29.89,NE,56,6.9,6.9,89,0.00,CLR,OVC,0.08,0.0,WeatherDisplay:10.37,2013-10-04 00:33:00,
2013-10-03 19:38:00,56.1,52.9,29.89,NE,49,3.0,3.0,89,0.00,CLR,OVC,0.08,0.0,WeatherDisplay:10.37,2013-10-04 00:38:00,
2013-10-03 19:43:00,56.1,52.9,29.89,NE,50,4.6,4.6,89,0.00,CLR,OVC,0.08,0.0,WeatherDisplay:10.37,2013-10-04 00:43:00,
2013-10-03 19:48:00,56.0,52.8,29.88,NE,51,3.5,3.5,89,0.00,CLR,OVC,0.08,0.0,WeatherDisplay:10.37,2013-10-04 00:48:00,
2013-10-03 19:53:00,56.0,52.8,29.89,NE,37,4.6,4.6,89,0.00,CLR,OVC,0.08,0.0,WeatherDisplay:10.37,2013-10-04 00:53:00,
2013-10-03 19:58:00,56.0,52.8,29.89,ENE,57,2.3,2.3,89,0.00,CLR,OVC,0.08,0.0,WeatherDisplay:10.37,2013-10-04 00:58:00,
2013-10-03 20:03:00,56.0,52.8,29.89,NE,52,2.3,2.3,89,0.00,CLR,OVC,0.08,0.0,WeatherDisplay:10.37,2013-10-04 01:03:00,
2013-10-03 20:08:00,56.1,52.9,29.89,NE,55,6.9,6.9,89,0.00,CLR,OVC,0.08,0.0,WeatherDisplay:10.37,2013-10-04 01:08:00,
2013-10-03 20:13:00,56.0,52.8,29.89,NE,49,8.1,8.1,89,0.00,CLR,OVC,0.08,0.0,WeatherDisplay:10.37,2013-10-04 01:13:00,
2013-10-03 20:18:00,56.0,52.8,29.89,NE,56,3.5,3.5,89,0.00,CLR,OVC,0.08,0.0,WeatherDisplay:10.37,2013-10-04 01:18:00,
2013-10-03 20:23:00,56.0,52.8,29.89,NNE,33,8.1,8.1,89,0.00,CLR,OVC,0.08,0.0,WeatherDisplay:10.37,2013-10-04 01:23:00,
2013-10-03 20:28:00,56.0,52.8,29.89,NE,49,4.6,4.6,89,0.00,CLR,OVC,0.08,0.0,WeatherDisplay:10.37,2013-10-04 01:28:00,
2013-10-03 20:33:00,56.0,52.8,29.90,NE,45,3.5,3.5,89,0.00,CLR,OVC,0.08,0.0,WeatherDisplay:10.37,2013-10-04 01:33:00,
2013-10-03 20:38:00,56.0,52.8,29.89,NE,40,8.1,8.1,89,0.00,CLR,OVC,0.08,0.0,WeatherDisplay:10.37,2013-10-04 01:38:00,
2013-10-03 20:43:00,56.0,52.5,29.90,NE,42,3.5,3.5,88,0.00,CLR,OVC,0.08,0.0,WeatherDisplay:10.37,2013-10-04 01:43:00,
2013-10-03 20:48:00,56.0,52.5,29.90,NE,46,4.6,4.6,88,0.00,CLR,OVC,0.08,0.0,WeatherDisplay:10.37,2013-10-04 01:48:00,
2013-10-03 20:53:00,56.0,52.5,29.90,NNE,32,3.5,3.5,88,0.00,CLR,OVC,0.08,0.0,WeatherDisplay:10.37,2013-10-04 01:53:00,
2013-10-03 20:58:00,55.9,52.4,29.91,NE,49,3.5,3.5,88,0.00,CLR,OVC,0.08,0.0,WeatherDisplay:10.37,2013-10-04 01:58:00,
2013-10-03 21:03:00,56.0,52.5,29.91,NE,46,3.5,3.5,88,0.00,CLR,OVC,0.08,0.0,WeatherDisplay:10.37,2013-10-04 02:03:00,
2013-10-03 21:08:00,56.0,52.5,29.91,ENE,57,3.5,3.5,88,0.00,CLR,OVC,0.08,0.0,WeatherDisplay:10.37,2013-10-04 02:08:00,
2013-10-03 21:13:00,55.9,52.4,29.91,NE,56,6.9,6.9,88,0.00,CLR,OVC,0.08,0.0,WeatherDisplay:10.37,2013-10-04 02:13:00,
2013-10-03 21:18:00,55.9,52.4,29.92,ENE,58,3.5,3.5,88,0.00,CLR,OVC,0.08,0.0,WeatherDisplay:10.37,2013-10-04 02:18:00,
2013-10-03 21:23:00,55.9,52.4,29.92,NE,47,3.5,3.5,88,0.00,CLR,OVC,0.08,0.0,WeatherDisplay:10.37,2013-10-04 02:23:00,
2013-10-03 21:28:00,55.8,52.3,29.92,NE,46,3.5,3.5,88,0.00,CLR,OVC,0.08,0.0,WeatherDisplay:10.37,2013-10-04 02:28:00,
2013-10-03 21:33:00,55.8,52.3,29.92,NE,45,3.5,3.5,88,0.00,CLR,OVC,0.08,0.0,WeatherDisplay:10.37,2013-10-04 02:33:00,
2013-10-03 21:38:00,55.7,52.2,29.92,ENE,59,0.0,0.0,88,0.00,CLR,OVC,0.08,0.0,WeatherDisplay:10.37,2013-10-04 02:38:00,
2013-10-03 21:43:00,55.7,52.2,29.92,ENE,58,0.0,0.0,88,0.00,CLR,OVC,0.08,0.0,WeatherDisplay:10.37,2013-10-04 02:43:00,
2013-10-03 21:48:00,55.6,52.1,29.93,ENE,57,3.0,3.0,88,0.00,CLR,OVC,0.08,0.0,WeatherDisplay:10.37,2013-10-04 02:48:00,
2013-10-03 21:53:00,55.4,51.9,29.93,NE,44,2.3,2.3,88,0.00,CLR,OVC,0.08,0.0,WeatherDisplay:10.37,2013-10-04 02:53:00,
2013-10-03 21:58:00,55.2,51.7,29.93,NE,52,3.5,3.5,88,0.00,CLR,OVC,0.08,0.0,WeatherDisplay:10.37,2013-10-04 02:58:00,
2013-10-03 22:03:00,55.1,51.6,29.94,NE,42,2.3,2.3,88,0.00,CLR,OVC,0.08,0.0,WeatherDisplay:10.37,2013-10-04 03:03:00,
2013-10-03 22:08:00,55.0,51.5,29.94,NE,38,3.5,3.5,88,0.00,CLR,OVC,0.08,0.0,WeatherDisplay:10.37,2013-10-04 03:08:00,
2013-10-03 22:13:00,54.9,51.4,29.94,NE,39,2.3,2.3,88,0.00,CLR,OVC,0.08,0.0,WeatherDisplay:10.37,2013-10-04 03:13:00,
2013-10-03 22:18:00,54.8,51.3,29.94,NE,39,1.2,0.0,88,0.00,CLR,OVC,0.08,0.0,WeatherDisplay:10.37,2013-10-04 03:18:00,
2013-10-03 22:23:00,54.8,51.3,29.94,NNE,30,3.5,3.5,88,0.00,CLR,OVC,0.08,0.0,WeatherDisplay:10.37,2013-10-04 03:23:00,
2013-10-03 22:28:00,54.7,51.2,29.95,ENE,76,2.3,2.3,88,0.00,CLR,OVC,0.08,0.0,WeatherDisplay:10.37,2013-10-04 03:28:00,
2013-10-03 22:33:00,54.6,51.4,29.94,ENE,57,1.2,1.2,89,0.01,RA,OVC,0.09,0.0,WeatherDisplay:10.37,2013-10-04 03:33:00,
2013-10-03 22:38:00,54.5,51.0,29.94,NE,44,3.5,3.5,88,0.01,RA,OVC,0.09,0.0,WeatherDisplay:10.37,2013-10-04 03:38:00,
2013-10-03 22:43:00,54.5,51.0,29.95,NE,48,2.3,2.3,88,0.01,CLR,OVC,0.09,0.0,WeatherDisplay:10.37,2013-10-04 03:43:00,
2013-10-03 22:48:00,54.4,50.9,29.95,ENE,71,1.2,1.3,88,0.01,CLR,OVC,0.09,0.0,WeatherDisplay:10.37,2013-10-04 03:48:00,
2013-10-03 22:53:00,54.3,51.1,29.95,NE,46,2.3,2.3,89,0.01,CLR,OVC,0.09,0.0,WeatherDisplay:10.37,2013-10-04 03:53:00,
2013-10-03 22:59:00,54.2,51.0,29.95,NE,35,2.3,2.3,89,0.01,CLR,OVC,0.09,0.0,WeatherDisplay:10.37,2013-10-04 03:59:00,
2013-10-03 23:33:00,54.1,50.9,29.95,East,85,3.5,3.5,89,0.00,CLR,OVC,0.09,0.0,WeatherDisplay:10.37,2013-10-04 04:33:00,
2013-10-03 23:35:00,54.1,50.9,29.95,NE,56,3.5,3.5,89,0.00,CLR,OVC,0.09,0.0,WeatherDisplay:10.37,2013-10-04 04:35:00,
2013-10-03 23:36:00,54.1,50.9,29.95,NE,55,2.3,0.0,89,0.00,CLR,OVC,0.09,0.0,WeatherDisplay:10.37,2013-10-04 04:36:00,
2013-10-03 23:37:00,54.1,50.9,29.95,NE,55,1.2,1.2,89,0.00,CLR,OVC,0.09,0.0,WeatherDisplay:10.37,2013-10-04 04:37:00,
2013-10-03 23:42:00,54.1,50.9,29.95,NE,52,2.3,2.3,89,0.00,CLR,OVC,0.09,0.0,WeatherDisplay:10.37,2013-10-04 04:42:00,
2013-10-03 23:43:00,54.1,50.9,29.95,NE,53,3.5,3.5,89,0.00,CLR,OVC,0.09,0.0,WeatherDisplay:10.37,2013-10-04 04:43:00,
2013-10-03 23:45:00,54.1,50.9,29.95,NNE,13,1.2,0.0,89,0.00,CLR,OVC,0.09,0.0,WeatherDisplay:10.37,2013-10-04 04:45:00,
2013-10-03 23:49:00,54.1,50.9,29.95,ENE,60,3.5,3.5,89,0.00,CLR,OVC,0.09,0.0,WeatherDisplay:10.37,2013-10-04 04:49:00,
2013-10-03 23:57:00,54.1,50.9,29.95,NE,46,3.5,3.5,89,0.00,CLR,OVC,0.09,0.0,WeatherDisplay:10.37,2013-10-04 04:57:00,
2013-10-03 23:59:00,54.1,50.9,29.95,NE,49,3.5,3.5,89,0.00,CLR,OVC,0.09,0.0,WeatherDisplay:10.37,2013-10-04 04:59:00,